Time;durP1;ratioP1;P1;durP2;ratioP2;P2;SDS_P1;SDS_P2;PMS_P1;PMS_P2;Temp;Humidity;BMP_temperature;BMP_pressure;BME280_temperature;BME280_humidity;BME280_pressure;Samples;Min_cycle;Max_cycle;Signal;HPM_P1;HPM_P2
2022/08/07 00:01:44;;;;;;;;;;;19.40;34.90;;;16.74;38.05;102141.44;12252078;19;19933;-89
2022/08/07 00:05:45;;;;;;;;;;;19.30;34.90;;;16.67;37.97;102140.97;12254733;19;19923;-90
2022/08/07 00:09:47;;;;;;;;;;;19.20;34.90;;;17.02;37.97;102193.50;12253988;19;19934;-88
2022/08/07 00:13:49;;;;;;;;;;;19.20;35.00;;;16.83;37.88;102166.50;12255130;19;19918;-87
2022/08/07 00:17:50;;;;;;;;;;;19.20;35.10;;;17.07;37.98;102225.75;12254132;19;20306;-88
2022/08/07 00:21:52;;;;;;;;;;;19.10;35.10;;;16.73;38.05;102174.88;12250823;19;19911;-89
2022/08/07 00:25:53;;;;;;;;;;;19.10;35.10;;;16.94;38.29;102211.56;12252651;19;19926;-88
2022/08/07 00:29:55;;;;;;;;;;;19.00;35.10;;;16.87;38.38;102215.50;12250976;19;19939;-89
2022/08/07 00:33:56;;;;;;;;;;;19.00;35.20;;;16.90;38.46;102205.59;12249983;19;19911;-88
2022/08/07 00:37:58;;;;;;;;;;;19.10;35.30;;;16.85;38.10;102210.31;12252344;19;19915;-88
2022/08/07 00:42:01;;;;;;;;;;;19.00;35.70;;;16.71;38.54;102197.88;12244667;19;19919;-88
2022/08/07 00:46:03;;;;;;;;;;;18.90;35.20;;;16.47;38.48;102186.06;12252810;19;20249;-90
2022/08/07 00:50:06;;;;;;;;;;;18.80;35.10;;;16.37;38.57;102194.53;12249170;19;20337;-88
2022/08/07 00:54:07;;;;;;;;;;;18.70;35.20;;;16.37;38.46;102207.69;12251216;19;20318;-89
2022/08/07 00:58:09;;;;;;;;;;;18.50;35.30;;;16.34;38.50;102201.75;12249406;19;19915;-89
2022/08/07 01:02:11;;;;;;;;;;;18.70;35.50;;;16.38;38.59;102221.72;12247409;19;20275;-88
2022/08/07 01:06:13;;;;;;;;;;;18.40;35.40;;;16.14;38.66;102206.31;12249743;19;19907;-88
2022/08/07 01:10:16;;;;;;;;;;;18.40;35.40;;;16.07;38.50;102215.53;12248663;19;20258;-88
2022/08/07 01:14:22;;;;;;;;;;;18.40;35.40;;;15.60;38.67;102154.81;12248313;19;19907;-89
2022/08/07 01:18:23;;;;;;;;;;;18.40;35.40;;;15.41;38.63;102147.88;12248273;19;20023;-88
2022/08/07 01:22:25;;;;;;;;;;;18.20;35.50;;;15.42;38.80;102165.41;12244704;19;20326;-88
2022/08/07 01:26:27;;;;;;;;;;;17.90;35.50;;;15.38;38.68;102158.59;12248021;19;19919;-88
2022/08/07 01:30:30;;;;;;;;;;;18.20;35.60;;;15.65;39.00;102218.63;12246166;19;19921;-88
2022/08/07 01:34:32;;;;;;;;;;;17.80;35.60;;;15.49;38.97;102202.78;12246344;19;19982;-88
2022/08/07 01:38:40;;;;;;;;;;;17.70;35.60;;;15.17;39.00;102165.81;12245263;19;19915;-88
2022/08/07 01:42:51;;;;;;;;;;;17.70;35.70;;;15.09;39.00;102154.81;12246095;19;20357;-87
2022/08/07 01:46:53;;;;;;;;;;;17.60;35.70;;;15.10;39.06;102151.28;12255499;19;19951;-88
2022/08/07 01:51:01;;;;;;;;;;;17.90;35.90;;;14.90;39.00;102133.88;12257317;19;19916;-88
2022/08/07 01:55:03;;;;;;;;;;;17.60;35.80;;;15.12;39.13;102172.25;12259853;19;19987;-88
2022/08/07 01:59:14;;;;;;;;;;;17.50;35.80;;;15.12;39.08;102183.66;12254840;19;20328;-88
2022/08/07 02:03:19;;;;;;;;;;;17.40;35.70;;;15.09;39.25;102188.19;12256850;19;19922;-88
2022/08/07 02:07:24;;;;;;;;;;;17.70;36.00;;;14.89;39.21;102161.13;12256908;19;19919;-88
2022/08/07 02:11:29;;;;;;;;;;;17.70;36.00;;;14.69;39.32;102154.22;12252002;19;19923;-87
2022/08/07 02:15:31;;;;;;;;;;;17.20;35.80;;;14.51;39.26;102139.31;12257216;19;19954;-87
2022/08/07 02:19:33;;;;;;;;;;;17.20;35.90;;;14.39;39.41;102141.63;12253791;19;19914;-87
2022/08/07 02:23:37;;;;;;;;;;;17.00;35.90;;;14.42;39.44;102145.88;12256859;19;19930;-87
2022/08/07 02:27:40;;;;;;;;;;;17.10;36.10;;;14.48;39.43;102150.00;12255919;19;19927;-87
2022/08/07 02:31:42;;;;;;;;;;;17.40;36.30;;;14.51;39.44;102165.63;12252352;19;19907;-87
2022/08/07 02:35:45;;;;;;;;;;;17.10;36.20;;;14.67;39.43;102187.63;12255310;19;19911;-87
2022/08/07 02:39:47;;;;;;;;;;;17.00;36.20;;;14.35;39.43;102134.81;12252626;19;19922;-87
2022/08/07 02:43:53;;;;;;;;;;;17.20;36.30;;;14.31;39.52;102137.66;12256216;19;19907;-87
2022/08/07 02:47:55;;;;;;;;;;;17.00;36.30;;;14.58;39.44;102193.31;12255924;19;19923;-87
2022/08/07 02:52:00;;;;;;;;;;;17.20;36.30;;;14.69;39.63;102221.72;12253651;19;19914;-87
2022/08/07 02:56:03;;;;;;;;;;;17.30;36.30;;;13.70;39.50;102071.34;12262251;19;19914;-88
2022/08/07 03:00:06;;;;;;;;;;;16.80;36.00;;;14.15;39.67;102167.31;12261196;19;19918;-87
2022/08/07 03:04:11;;;;;;;;;;;16.70;36.10;;;14.03;39.79;102149.47;12267111;19;20377;-88
2022/08/07 03:08:13;;;;;;;;;;;16.60;36.20;;;13.61;39.90;102086.66;12262043;19;19918;-88
2022/08/07 03:12:19;;;;;;;;;;;16.70;36.30;;;13.90;39.82;102138.69;12255705;19;19919;-87
2022/08/07 03:16:22;;;;;;;;;;;16.90;36.40;;;13.63;39.86;102109.31;12259521;19;19914;-88
2022/08/07 03:20:25;;;;;;;;;;;16.50;36.40;;;13.95;39.98;102172.63;12254141;19;19927;-88
2022/08/07 03:24:27;;;;;;;;;;;16.50;36.50;;;13.88;39.86;102165.94;12257395;19;20333;-88
2022/08/07 03:28:30;;;;;;;;;;;16.50;36.60;;;13.92;39.79;102178.03;12256937;19;19927;-87
2022/08/07 03:32:39;;;;;;;;;;;16.70;37.00;;;13.66;39.93;102148.56;12252894;19;19936;-89
2022/08/07 03:36:42;;;;;;;;;;;16.80;36.70;;;13.55;40.10;102142.91;12254898;19;19907;-87
2022/08/07 03:40:44;;;;;;;;;;;16.60;36.70;;;13.81;40.05;102180.28;12250590;19;19918;-87
2022/08/07 03:44:48;;;;;;;;;;;16.30;36.70;;;13.67;40.09;102168.63;12252527;19;19918;-87
2022/08/07 03:48:50;;;;;;;;;;;16.50;36.80;;;13.99;39.98;102226.72;12251431;19;19989;-87
2022/08/07 03:52:52;;;;;;;;;;;16.20;36.70;;;13.46;40.20;102153.84;12249182;19;19918;-87
2022/08/07 03:56:56;;;;;;;;;;;16.30;36.70;;;13.38;40.34;102151.56;12252562;19;19919;-87
2022/08/07 04:00:58;;;;;;;;;;;16.00;36.70;;;13.67;40.34;102210.63;12248538;19;19911;-87
2022/08/07 04:05:00;;;;;;;;;;;15.90;36.70;;;13.59;40.43;102204.03;12252036;19;19915;-87
2022/08/07 04:09:02;;;;;;;;;;;16.00;36.90;;;13.49;40.21;102188.66;12252556;19;19944;-87
2022/08/07 04:13:06;;;;;;;;;;;16.00;37.00;;;13.50;40.49;102192.13;12252789;19;19919;-87
2022/08/07 04:17:08;;;;;;;;;;;15.90;37.00;;;13.33;40.46;102171.88;12251914;19;19922;-87
2022/08/07 04:21:10;;;;;;;;;;;15.90;37.10;;;13.35;40.52;102174.47;12249122;19;19923;-87
2022/08/07 04:25:12;;;;;;;;;;;16.30;37.30;;;13.70;40.50;102236.75;12250706;19;19915;-87
2022/08/07 04:29:15;;;;;;;;;;;16.30;37.30;;;13.63;40.43;102224.81;12248385;19;19918;-87
2022/08/07 04:33:18;;;;;;;;;;;16.10;37.30;;;13.61;40.44;102234.53;12250106;19;19918;-88
2022/08/07 04:37:22;;;;;;;;;;;15.80;37.00;;;13.33;40.58;102192.03;12249388;19;19946;-87
2022/08/07 04:41:27;;;;;;;;;;;15.90;37.20;;;13.46;40.66;102217.66;12246351;19;19907;-87
2022/08/07 04:45:37;;;;;;;;;;;16.10;37.50;;;13.70;40.75;102246.41;12248423;19;19925;-87
2022/08/07 04:49:56;;;;;;;;;;;15.80;37.40;;;13.64;40.84;102242.28;12247463;19;19922;-87
2022/08/07 04:54:09;;;;;;;;;;;15.80;37.40;;;13.56;40.97;102231.25;12248658;19;19946;-87
2022/08/07 04:58:21;;;;;;;;;;;16.00;37.50;;;13.78;40.82;102253.94;12248739;19;19918;-87
2022/08/07 05:02:44;;;;;;;;;;;16.20;37.70;;;13.81;40.86;102254.66;12239350;19;19938;-87
2022/08/07 05:07:04;;;;;;;;;;;15.90;37.60;;;13.80;41.04;102249.47;12245457;19;20361;-87
2022/08/07 05:11:13;;;;;;;;;;;16.10;37.70;;;13.67;41.13;102215.88;12245110;19;19925;-87
2022/08/07 05:15:21;;;;;;;;;;;15.90;37.70;;;13.91;41.02;102249.84;12247841;19;20396;-87
2022/08/07 05:19:24;;;;;;;;;;;16.10;37.90;;;13.79;40.93;102230.22;12248597;19;19922;-86
2022/08/07 05:23:32;;;;;;;;;;;16.10;37.90;;;14.11;41.17;102269.97;12258050;19;19910;-88
2022/08/07 05:27:37;;;;;;;;;;;16.10;37.80;;;14.14;41.17;102251.44;12259050;19;19918;-87
2022/08/07 05:31:40;;;;;;;;;;;16.20;37.90;;;14.12;41.11;102238.38;12255232;19;19927;-87
2022/08/07 05:35:46;;;;;;;;;;;16.20;38.10;;;14.43;41.23;102267.63;12258548;19;19921;-88
2022/08/07 05:39:49;;;;;;;;;;;16.40;38.30;;;14.52;41.29;102262.81;12251285;19;19926;-88
2022/08/07 05:43:53;;;;;;;;;;;16.50;38.30;;;14.14;41.30;102183.97;12258561;19;19907;-88
2022/08/07 05:47:55;;;;;;;;;;;16.60;38.30;;;14.78;41.39;102264.22;12258533;19;19923;-88
2022/08/07 05:51:58;;;;;;;;;;;16.70;38.50;;;14.92;41.40;102260.06;12253341;19;19915;-88
2022/08/07 05:56:05;;;;;;;;;;;16.80;38.60;;;15.08;41.40;102233.84;12257401;19;19937;-88
2022/08/07 06:00:09;;;;;;;;;;;17.00;38.90;;;15.58;41.58;102260.25;12248686;19;19918;-87
2022/08/07 06:04:22;;;;;;;;;;;17.30;39.20;;;15.96;41.52;102265.31;12256224;19;19929;-87
2022/08/07 06:08:24;;;;;;;;;;;17.60;39.40;;;16.31;41.59;102268.69;12255864;19;20252;-87
2022/08/07 06:12:26;;;;;;;;;;;17.90;39.20;;;16.65;41.35;102255.41;12248933;19;19957;-87
2022/08/07 06:16:32;;;;;;;;;;;18.20;39.20;;;17.16;41.49;102264.78;12254935;19;20246;-88
2022/08/07 06:20:36;;;;;;;;;;;18.60;39.20;;;17.39;41.33;102244.09;12252137;19;20267;-87
2022/08/07 06:24:40;;;;;;;;;;;19.00;39.00;;;17.73;41.42;102234.16;12255928;19;19919;-89
2022/08/07 06:28:49;;;;;;;;;;;19.50;38.80;;;18.10;41.29;102249.47;12255987;19;19929;-87
2022/08/07 06:32:51;;;;;;;;;;;19.80;38.70;;;18.29;41.41;102250.94;12251044;19;19914;-87
2022/08/07 06:36:53;;;;;;;;;;;20.00;38.30;;;18.56;41.25;102264.19;12257889;19;19967;-88
2022/08/07 06:41:04;;;;;;;;;;;20.30;38.10;;;18.72;41.24;102266.72;12251875;19;19907;-88
2022/08/07 06:45:10;;;;;;;;;;;20.60;38.00;;;18.94;41.20;102274.97;12256962;19;19927;-88
2022/08/07 06:49:13;;;;;;;;;;;20.70;37.70;;;19.04;41.14;102258.47;12250972;19;20646;-90
2022/08/07 06:53:14;;;;;;;;;;;21.30;37.60;;;19.27;40.98;102263.06;12255920;19;19911;-89
2022/08/07 06:57:19;;;;;;;;;;;21.10;37.50;;;19.37;40.90;102256.22;12255870;19;19922;-89
2022/08/07 07:01:21;;;;;;;;;;;21.30;37.30;;;19.62;40.62;102276.56;12253776;19;19915;-88
2022/08/07 07:05:23;;;;;;;;;;;21.40;37.30;;;19.57;40.83;102246.03;12256013;19;19919;-90
2022/08/07 07:09:27;;;;;;;;;;;21.60;37.30;;;19.52;40.68;102200.44;12251057;19;19930;-88
2022/08/07 07:13:56;;;;;;;;;;;21.70;37.10;;;20.07;40.65;102268.22;12253156;19;19974;-90
2022/08/07 07:18:14;;;;;;;;;;;21.80;37.10;;;20.17;40.69;102268.38;12256186;19;20000;-87
2022/08/07 07:22:16;;;;;;;;;;;22.00;37.00;;;20.09;40.42;102223.84;12248096;19;19922;-86
2022/08/07 07:26:20;;;;;;;;;;;22.20;36.90;;;20.33;40.45;102237.13;12252877;19;19929;-87
2022/08/07 07:30:26;;;;;;;;;;;22.50;36.90;;;20.33;40.67;102214.13;12249977;19;19915;-87
2022/08/07 07:34:30;;;;;;;;;;;22.50;36.80;;;20.51;40.69;102216.38;12250032;19;19918;-87
2022/08/07 07:38:32;;;;;;;;;;;22.60;36.70;;;20.70;40.40;102200.81;12249702;19;19919;-86
2022/08/07 07:42:35;;;;;;;;;;;22.80;36.60;;;21.04;40.10;102227.50;12255029;19;19939;-87
2022/08/07 07:46:38;;;;;;;;;;;22.90;36.60;;;21.38;40.63;102240.91;12258937;19;19915;-86
2022/08/07 07:50:41;;;;;;;;;;;23.10;36.60;;;21.55;40.35;102226.28;12254202;19;19911;-88
2022/08/07 07:54:44;;;;;;;;;;;23.40;36.70;;;21.55;40.32;102184.63;12255760;19;20237;-87
2022/08/07 07:58:47;;;;;;;;;;;23.60;36.50;;;22.15;40.13;102233.06;12254420;19;19947;-86
2022/08/07 08:02:49;;;;;;;;;;;23.80;36.50;;;21.93;39.97;102159.44;12252013;19;20321;-87
2022/08/07 08:06:51;;;;;;;;;;;24.30;36.30;;;22.35;39.75;102190.69;12255523;19;19919;-85
2022/08/07 08:10:54;;;;;;;;;;;24.30;36.10;;;22.76;39.86;102224.56;12253619;19;19911;-87
2022/08/07 08:14:56;;;;;;;;;;;24.60;36.10;;;22.91;39.95;102225.94;12256504;19;19915;-86
2022/08/07 08:18:59;;;;;;;;;;;24.70;36.00;;;23.19;39.59;102248.47;12253203;19;19923;-87
2022/08/07 08:27:25;;;;;;;;;;;25.00;35.90;;;23.59;39.39;102238.88;12254454;19;19931;-87
2022/08/07 08:31:34;;;;;;;;;;;25.20;35.60;;;23.72;39.28;102225.38;12251818;19;20273;-87
2022/08/07 08:35:37;;;;;;;;;;;25.40;35.60;;;23.93;39.38;102222.66;12252195;19;19918;-86
2022/08/07 08:39:41;;;;;;;;;;;25.90;35.60;;;24.00;39.27;102210.44;12250502;19;19911;-87
2022/08/07 08:43:46;;;;;;;;;;;25.80;35.10;;;24.21;39.37;102227.19;12252648;19;19915;-87
2022/08/07 08:48:15;;;;;;;;;;;25.90;35.60;;;24.43;39.44;102236.78;12252707;19;19917;-86
2022/08/07 08:52:38;;;;;;;;;;;26.00;35.40;;;24.12;39.16;102141.78;12244514;19;20341;-87
2022/08/07 08:56:46;;;;;;;;;;;26.20;35.40;;;24.60;38.84;102191.69;12252166;19;20346;-87
2022/08/07 09:00:55;;;;;;;;;;;26.40;35.20;;;24.74;39.18;102202.00;12248961;19;19926;-87
2022/08/07 09:05:25;;;;;;;;;;;26.50;35.30;;;24.99;38.72;102215.75;12252538;19;19918;-87
2022/08/07 09:10:00;;;;;;;;;;;26.60;34.80;;;25.14;38.88;102206.28;12247691;19;19915;-87
2022/08/07 09:14:23;;;;;;;;;;;26.80;35.10;;;25.25;38.46;102191.91;12251214;19;19919;-86
2022/08/07 09:19:02;;;;;;;;;;;26.90;34.90;;;25.57;38.72;102205.78;12251033;19;19927;-87
2022/08/07 09:23:40;;;;;;;;;;;27.10;35.10;;;25.68;38.51;102198.53;12252349;19;19915;-87
2022/08/07 09:27:51;;;;;;;;;;;27.50;34.80;;;25.66;38.21;102205.88;12251434;19;19919;-86
2022/08/07 09:32:22;;;;;;;;;;;27.50;34.60;;;25.60;38.14;102199.28;12248989;19;20602;-85
2022/08/07 09:36:28;;;;;;;;;;;27.60;34.00;;;25.58;38.17;102188.72;12251658;19;19919;-86
2022/08/07 09:41:01;;;;;;;;;;;27.50;34.10;;;25.57;37.97;102173.66;12248652;19;19919;-86
2022/08/07 09:45:11;;;;;;;;;;;27.50;34.40;;;25.60;38.20;102188.59;12250091;19;20274;-86
2022/08/07 09:49:38;;;;;;;;;;;27.50;34.90;;;25.53;38.12;102182.97;12250008;19;19910;-86
2022/08/07 09:53:42;;;;;;;;;;;27.50;34.40;;;25.15;38.00;102133.97;12249095;19;19911;-86
2022/08/07 09:58:05;;;;;;;;;;;27.50;34.40;;;25.39;38.19;102181.63;12248667;19;19943;-87
2022/08/07 10:02:10;;;;;;;;;;;27.30;34.20;;;25.30;38.10;102178.97;12243185;19;19914;-86
2022/08/07 10:06:38;;;;;;;;;;;27.30;34.20;;;25.16;37.89;102174.91;12258570;19;19943;-86
2022/08/07 10:11:27;;;;;;;;;;;27.10;33.40;;;24.99;37.59;102167.63;12256127;19;20249;-86
2022/08/07 10:15:45;;;;;;;;;;;27.00;33.80;;;24.86;38.01;102157.25;12260829;19;19919;-87
2022/08/07 10:20:31;;;;;;;;;;;26.90;33.90;;;24.85;37.96;102155.56;12253165;19;19931;-87
2022/08/07 10:24:49;;;;;;;;;;;26.80;34.00;;;24.84;37.99;102148.50;12253371;19;20233;-86
2022/08/07 10:29:00;;;;;;;;;;;26.80;34.00;;;24.83;37.90;102149.50;12256156;19;19918;-87
2022/08/07 10:33:31;;;;;;;;;;;26.70;33.80;;;24.82;37.44;102140.66;12257912;19;20381;-86
2022/08/07 10:37:52;;;;;;;;;;;26.70;34.00;;;24.83;37.64;102130.81;12257392;19;19911;-88
2022/08/07 10:42:04;;;;;;;;;;;26.60;34.10;;;24.83;37.84;102120.13;12252558;19;19914;-86
2022/08/07 10:46:14;;;;;;;;;;;26.70;34.10;;;24.87;37.32;102132.19;12256514;19;19951;-86
2022/08/07 10:50:23;;;;;;;;;;;26.60;34.10;;;24.67;37.45;102100.16;12254261;19;19918;-86
2022/08/07 10:54:45;;;;;;;;;;;26.70;34.10;;;24.76;37.05;102108.31;12255321;19;19923;-86
2022/08/07 10:59:09;;;;;;;;;;;26.60;34.00;;;24.84;37.53;102117.28;12253531;19;19943;-86
2022/08/07 11:03:15;;;;;;;;;;;26.60;33.90;;;24.86;37.35;102114.47;12255320;19;19995;-86
2022/08/07 11:07:36;;;;;;;;;;;26.60;33.90;;;25.05;37.26;102105.56;12256222;19;20257;-86
2022/08/07 11:12:15;;;;;;;;;;;26.80;34.10;;;25.23;37.05;102086.97;12250988;19;19943;-86
2022/08/07 11:16:26;;;;;;;;;;;26.80;34.10;;;25.55;37.07;102090.03;12253539;19;19906;-88
2022/08/07 11:20:47;;;;;;;;;;;27.10;33.90;;;25.83;36.80;102098.03;12251094;19;19974;-87
2022/08/07 11:25:04;;;;;;;;;;;27.30;33.80;;;26.01;37.03;102090.88;12256000;19;20341;-88
2022/08/07 11:29:13;;;;;;;;;;;27.50;33.60;;;26.07;36.58;102057.28;12254319;19;19903;-87
2022/08/07 11:33:31;;;;;;;;;;;27.70;33.90;;;26.40;36.62;102073.63;12254196;19;19914;-87
2022/08/07 11:37:53;;;;;;;;;;;27.80;33.70;;;26.57;36.53;102069.25;12256985;19;19985;-88
2022/08/07 11:42:18;;;;;;;;;;;28.10;33.90;;;26.74;36.19;102064.88;12254309;19;19907;-86
2022/08/07 11:46:35;;;;;;;;;;;28.20;33.70;;;26.81;36.29;102061.38;12256243;19;19936;-88
2022/08/07 11:50:49;;;;;;;;;;;28.40;33.30;;;26.81;36.03;102049.81;12258153;19;19918;-88
2022/08/07 11:55:18;;;;;;;;;;;28.50;33.40;;;26.87;35.85;102041.97;12255926;19;19923;-87
2022/08/07 11:59:52;;;;;;;;;;;28.60;33.20;;;26.93;35.81;102048.53;12253887;19;19917;-88
2022/08/07 12:04:13;;;;;;;;;;;28.60;33.00;;;26.80;36.00;102046.28;12255584;19;19930;-88
2022/08/07 12:08:28;;;;;;;;;;;28.50;32.90;;;26.65;35.55;102037.16;12256044;19;20317;-87
2022/08/07 12:12:58;;;;;;;;;;;28.50;33.10;;;26.58;35.56;102044.16;12251799;19;19986;-88
2022/08/07 12:17:04;;;;;;;;;;;28.30;32.70;;;26.42;35.76;102018.06;12252007;19;20247;-88
2022/08/07 12:22:00;;;;;;;;;;;28.20;33.00;;;26.48;35.70;102042.38;12248250;19;19975;-88
2022/08/07 12:26:13;;;;;;;;;;;28.20;33.00;;;26.47;35.92;102038.03;12248268;19;19914;-87
2022/08/07 12:30:15;;;;;;;;;;;28.20;33.20;;;26.33;35.58;102013.63;12250324;19;19930;-90
2022/08/07 12:34:18;;;;;;;;;;;28.20;33.00;;;26.42;35.53;102021.56;12251677;19;19954;-88
2022/08/07 12:38:20;;;;;;;;;;;28.20;33.00;;;26.39;35.65;102013.84;12249527;19;19907;-87
2022/08/07 12:42:24;;;;;;;;;;;28.30;32.90;;;26.36;35.51;102002.63;12245284;19;20036;-87
2022/08/07 12:47:00;;;;;;;;;;;28.10;32.90;;;26.43;35.34;102015.22;12250910;19;19931;-87
2022/08/07 12:51:15;;;;;;;;;;;28.20;32.50;;;26.47;35.50;102013.06;12249237;19;19911;-87
2022/08/07 12:55:23;;;;;;;;;;;28.20;32.80;;;26.56;35.58;102003.28;12252523;19;19996;-87
2022/08/07 12:59:29;;;;;;;;;;;28.40;33.20;;;26.61;35.58;101996.44;12248910;19;19922;-88
2022/08/07 13:04:09;;;;;;;;;;;28.30;32.80;;;26.80;35.25;101999.88;12250088;19;19919;-86
2022/08/07 13:08:16;;;;;;;;;;;28.30;32.80;;;26.77;35.01;101990.31;12252008;19;19922;-88
2022/08/07 13:12:36;;;;;;;;;;;28.40;32.80;;;26.74;35.24;101985.28;12248114;19;19910;-88
2022/08/07 13:16:59;;;;;;;;;;;28.40;32.60;;;26.68;35.07;101977.88;12250186;19;19922;-89
2022/08/07 13:21:11;;;;;;;;;;;28.40;32.60;;;26.78;35.20;101977.75;12247032;19;19911;-88
2022/08/07 13:25:30;;;;;;;;;;;28.40;32.60;;;26.76;35.14;101951.13;12250324;19;19931;-88
2022/08/07 13:29:49;;;;;;;;;;;28.50;32.70;;;26.98;34.80;101965.78;12250969;19;19915;-89
2022/08/07 13:34:43;;;;;;;;;;;28.60;32.50;;;27.01;35.00;101967.31;12250645;19;19929;-88
2022/08/07 13:39:07;;;;;;;;;;;28.60;32.50;;;26.92;34.96;101943.16;12249222;19;19921;-88
2022/08/07 13:43:14;;;;;;;;;;;28.60;32.60;;;26.96;34.96;101943.66;12262710;19;19948;-87
2022/08/07 13:47:17;;;;;;;;;;;28.70;32.80;;;26.99;34.91;101939.81;12261461;19;19926;-87
2022/08/07 13:51:19;;;;;;;;;;;28.60;32.40;;;27.00;34.82;101928.91;12257813;19;20248;-88
2022/08/07 13:55:21;;;;;;;;;;;28.70;32.00;;;26.87;34.74;101886.50;12263277;19;20331;-88
2022/08/07 13:59:26;;;;;;;;;;;28.70;32.30;;;26.96;34.89;101875.78;12258540;19;19915;-88
2022/08/07 14:03:30;;;;;;;;;;;28.90;32.70;;;27.45;34.31;101930.38;12261809;19;19911;-88
2022/08/07 14:07:38;;;;;;;;;;;29.00;32.40;;;27.52;34.72;101931.41;12261308;19;19939;-88
2022/08/07 14:11:54;;;;;;;;;;;29.10;32.50;;;27.62;34.41;101915.09;12257126;19;19918;-88
2022/08/07 14:16:03;;;;;;;;;;;29.10;32.90;;;27.73;34.12;101922.84;12260176;19;19922;-89
2022/08/07 14:20:17;;;;;;;;;;;29.20;32.40;;;27.72;34.27;101909.56;12254368;19;19922;-88
2022/08/07 14:24:32;;;;;;;;;;;29.30;32.60;;;27.70;33.83;101890.94;12253090;19;19917;-88
2022/08/07 14:28:34;;;;;;;;;;;29.40;32.10;;;27.90;34.14;101909.44;12258105;19;20360;-87
2022/08/07 14:32:56;;;;;;;;;;;29.40;32.10;;;27.92;34.13;101904.72;12251004;19;19923;-87
2022/08/07 14:37:00;;;;;;;;;;;29.50;32.40;;;27.62;33.47;101863.28;12255954;19;19911;-87
2022/08/07 14:41:05;;;;;;;;;;;29.60;31.60;;;27.86;33.72;101905.41;12253295;19;19919;-88
2022/08/07 14:45:11;;;;;;;;;;;29.50;31.90;;;27.79;33.53;101894.47;12257939;19;19967;-87
2022/08/07 14:49:13;;;;;;;;;;;29.50;31.90;;;27.82;33.76;101887.97;12255436;19;19919;-87
2022/08/07 14:53:16;;;;;;;;;;;29.40;31.40;;;27.61;33.79;101843.66;12255263;19;19919;-88
2022/08/07 14:57:19;;;;;;;;;;;29.50;31.80;;;27.91;33.93;101871.66;12255311;19;19919;-89
2022/08/07 15:01:30;;;;;;;;;;;29.50;31.40;;;28.08;33.68;101887.72;12252591;19;20317;-88
2022/08/07 15:05:32;;;;;;;;;;;29.60;31.90;;;28.11;33.59;101882.88;12253191;19;20258;-89
2022/08/07 15:09:39;;;;;;;;;;;29.70;31.80;;;27.89;33.88;101836.06;12255222;19;20275;-87
2022/08/07 15:13:53;;;;;;;;;;;29.70;31.90;;;28.15;33.43;101876.13;12257387;19;19911;-88
2022/08/07 15:17:58;;;;;;;;;;;29.70;31.90;;;27.92;33.07;101837.59;12254523;19;19915;-87
2022/08/07 15:22:03;;;;;;;;;;;29.70;32.00;;;27.80;33.33;101821.84;12250523;19;20325;-88
2022/08/07 15:26:06;;;;;;;;;;;29.80;31.60;;;27.89;33.54;101832.56;12254266;19;19915;-89
2022/08/07 15:30:09;;;;;;;;;;;29.70;32.20;;;28.17;33.30;101863.38;12252546;19;19910;-88
2022/08/07 15:34:11;;;;;;;;;;;29.70;31.50;;;28.07;32.84;101849.31;12253943;19;19998;-88
2022/08/07 15:38:12;;;;;;;;;;;29.70;31.80;;;27.91;32.78;101819.81;12259083;19;20312;-90
2022/08/07 15:42:36;;;;;;;;;;;29.70;31.60;;;28.13;32.84;101858.50;12251286;19;19915;-88
2022/08/07 15:46:39;;;;;;;;;;;29.70;31.50;;;28.03;33.17;101858.72;12251183;19;20358;-88
2022/08/07 15:50:46;;;;;;;;;;;29.60;31.00;;;27.90;33.36;101845.81;12250022;19;19914;-89
2022/08/07 15:54:49;;;;;;;;;;;29.60;31.30;;;27.94;33.30;101849.00;12253234;19;19978;-89
2022/08/07 15:58:56;;;;;;;;;;;29.50;31.30;;;28.05;33.02;101864.75;12250914;19;19922;-88
2022/08/07 16:03:00;;;;;;;;;;;29.60;31.40;;;27.99;32.89;101843.94;12252529;19;19911;-88
2022/08/07 16:07:06;;;;;;;;;;;29.60;31.50;;;28.06;32.74;101854.84;12252776;19;19927;-88
2022/08/07 16:11:42;;;;;;;;;;;29.60;31.40;;;28.05;32.60;101845.09;12249583;19;20337;-88
2022/08/07 16:16:04;;;;;;;;;;;29.60;31.40;;;27.94;32.66;101839.09;12255221;19;19919;-87
2022/08/07 16:20:18;;;;;;;;;;;29.60;31.40;;;27.93;32.83;101836.59;12251278;19;19919;-88
2022/08/07 16:24:30;;;;;;;;;;;29.50;31.40;;;27.94;32.42;101835.56;12254382;19;19919;-88
2022/08/07 16:28:53;;;;;;;;;;;29.50;31.20;;;28.05;32.59;101843.25;12254392;19;19930;-88
2022/08/07 16:33:06;;;;;;;;;;;29.60;31.30;;;28.06;32.50;101842.25;12249077;19;19942;-88
2022/08/07 16:37:17;;;;;;;;;;;29.60;31.30;;;28.01;32.21;101850.00;12252431;19;19927;-88
2022/08/07 16:41:34;;;;;;;;;;;29.60;31.00;;;27.96;32.48;101841.63;12250866;19;20322;-88
2022/08/07 16:46:01;;;;;;;;;;;29.50;31.30;;;27.82;32.63;101819.00;12249528;19;21911;-88
2022/08/07 16:50:23;;;;;;;;;;;29.50;31.50;;;27.89;32.24;101840.63;12247441;19;19958;-88
2022/08/07 16:54:59;;;;;;;;;;;29.50;31.40;;;27.82;32.40;101835.09;12251925;19;19911;-88
2022/08/07 16:59:05;;;;;;;;;;;29.40;31.10;;;27.71;32.50;101830.06;12248216;19;20349;-89
2022/08/07 17:03:15;;;;;;;;;;;29.30;31.10;;;27.70;32.42;101834.56;12250931;19;19906;-88
2022/08/07 17:07:47;;;;;;;;;;;29.30;31.20;;;27.62;32.37;101839.94;12249887;19;19921;-87
2022/08/07 17:11:57;;;;;;;;;;;29.20;31.10;;;27.58;32.14;101842.16;12245934;19;19919;-89
2022/08/07 17:16:20;;;;;;;;;;;29.20;31.10;;;27.25;32.07;101797.59;12246520;19;19926;-88
2022/08/07 17:20:32;;;;;;;;;;;29.10;31.10;;;27.35;32.64;101825.06;12247568;19;20343;-87
2022/08/07 17:24:39;;;;;;;;;;;29.10;31.10;;;27.42;32.46;101849.38;12250372;19;19945;-88
2022/08/07 17:28:56;;;;;;;;;;;29.00;31.00;;;27.13;32.26;101799.72;12250475;19;19925;-87
2022/08/07 17:33:23;;;;;;;;;;;29.00;31.10;;;27.35;32.31;101843.84;12247118;19;19951;-88
2022/08/07 17:37:28;;;;;;;;;;;29.00;31.20;;;27.23;32.17;101835.28;12250131;19;19915;-87
2022/08/07 17:42:03;;;;;;;;;;;28.90;31.20;;;27.32;32.29;101847.69;12245877;19;19919;-87
2022/08/07 17:46:22;;;;;;;;;;;28.90;31.20;;;27.17;32.41;101835.97;12244745;19;19948;-87
2022/08/07 17:50:33;;;;;;;;;;;28.90;31.30;;;27.23;32.38;101848.69;12243185;19;19923;-87
2022/08/07 17:54:53;;;;;;;;;;;28.80;31.10;;;27.18;32.11;101848.34;12248659;19;19911;-88
2022/08/07 17:58:54;;;;;;;;;;;28.80;31.20;;;27.12;32.30;101843.63;12247070;19;19919;-88
2022/08/07 18:02:59;;;;;;;;;;;28.90;31.70;;;27.05;32.67;101845.28;12244475;19;19903;-88
2022/08/07 18:07:03;;;;;;;;;;;28.70;31.50;;;26.97;32.12;101846.13;12245895;19;19946;-88
2022/08/07 18:11:35;;;;;;;;;;;28.60;31.40;;;26.79;32.33;101838.22;12241421;19;19911;-88
2022/08/07 18:15:58;;;;;;;;;;;28.50;31.40;;;26.71;32.44;101843.56;12245513;19;19919;-88
2022/08/07 18:20:02;;;;;;;;;;;28.40;31.40;;;26.58;32.45;101843.19;12243626;19;19918;-88
2022/08/07 18:24:19;;;;;;;;;;;28.30;31.40;;;26.44;32.20;101850.81;12244826;19;19918;-88
2022/08/07 18:28:25;;;;;;;;;;;28.20;31.40;;;26.25;32.37;101840.34;12256926;19;20298;-88
2022/08/07 18:32:45;;;;;;;;;;;28.10;31.40;;;26.18;32.61;101850.84;12251303;19;20278;-89
2022/08/07 18:37:18;;;;;;;;;;;27.90;31.30;;;26.05;32.60;101855.78;12259381;19;20291;-88
2022/08/07 18:41:38;;;;;;;;;;;27.80;31.30;;;25.91;32.64;101853.72;12249825;19;19915;-89
2022/08/07 18:46:00;;;;;;;;;;;27.70;31.30;;;25.75;32.61;101855.25;12264268;19;20006;-88
2022/08/07 18:50:23;;;;;;;;;;;27.50;31.20;;;25.63;32.42;101861.00;12257386;19;19946;-89